sensor_id;sensor_type;location;lat;lon;timestamp;P1;durP1;ratioP1;P2;durP2;ratioP2
80541;SDS011;69870;51.460;8.842;2023-05-07T00:01:33;12.77;;;8.18;;
80541;SDS011;69870;51.460;8.842;2023-05-07T00:04:00;12.85;;;8.05;;
80541;SDS011;69870;51.460;8.842;2023-05-07T00:06:27;20.50;;;8.00;;
80541;SDS011;69870;51.460;8.842;2023-05-07T00:08:54;17.83;;;7.50;;
80541;SDS011;69870;51.460;8.842;2023-05-07T00:11:20;14.85;;;7.75;;
80541;SDS011;69870;51.460;8.842;2023-05-07T00:13:47;15.30;;;7.65;;
80541;SDS011;69870;51.460;8.842;2023-05-07T00:16:14;14.75;;;8.07;;
80541;SDS011;69870;51.460;8.842;2023-05-07T00:18:42;18.55;;;9.88;;
80541;SDS011;69870;51.460;8.842;2023-05-07T00:21:08;26.70;;;20.48;;
80541;SDS011;69870;51.460;8.842;2023-05-07T00:23:35;29.63;;;23.15;;
80541;SDS011;69870;51.460;8.842;2023-05-07T00:26:02;33.65;;;23.15;;
80541;SDS011;69870;51.460;8.842;2023-05-07T00:28:28;43.58;;;28.13;;
80541;SDS011;69870;51.460;8.842;2023-05-07T00:30:55;31.38;;;19.45;;
80541;SDS011;69870;51.460;8.842;2023-05-07T00:33:22;25.15;;;16.77;;
80541;SDS011;69870;51.460;8.842;2023-05-07T00:35:50;19.52;;;14.32;;
80541;SDS011;69870;51.460;8.842;2023-05-07T00:38:16;17.50;;;12.95;;
80541;SDS011;69870;51.460;8.842;2023-05-07T00:40:43;16.80;;;11.93;;
80541;SDS011;69870;51.460;8.842;2023-05-07T00:43:10;21.85;;;10.88;;
80541;SDS011;69870;51.460;8.842;2023-05-07T00:45:37;17.00;;;9.05;;
80541;SDS011;69870;51.460;8.842;2023-05-07T00:48:04;13.52;;;7.95;;
80541;SDS011;69870;51.460;8.842;2023-05-07T00:50:31;19.48;;;8.52;;
80541;SDS011;69870;51.460;8.842;2023-05-07T00:53:00;13.00;;;7.68;;
80541;SDS011;69870;51.460;8.842;2023-05-07T00:55:27;16.95;;;8.85;;
80541;SDS011;69870;51.460;8.842;2023-05-07T00:57:54;12.20;;;8.90;;
80541;SDS011;69870;51.460;8.842;2023-05-07T01:00:21;16.90;;;9.15;;
80541;SDS011;69870;51.460;8.842;2023-05-07T01:02:49;13.35;;;8.88;;
80541;SDS011;69870;51.460;8.842;2023-05-07T01:05:17;14.75;;;8.93;;
80541;SDS011;69870;51.460;8.842;2023-05-07T01:07:45;10.85;;;8.00;;
80541;SDS011;69870;51.460;8.842;2023-05-07T01:10:14;13.65;;;8.15;;
80541;SDS011;69870;51.460;8.842;2023-05-07T01:12:41;13.48;;;8.90;;
80541;SDS011;69870;51.460;8.842;2023-05-07T01:15:09;13.20;;;8.05;;
80541;SDS011;69870;51.460;8.842;2023-05-07T01:17:36;14.48;;;8.30;;
80541;SDS011;69870;51.460;8.842;2023-05-07T01:20:09;13.65;;;8.38;;
80541;SDS011;69870;51.460;8.842;2023-05-07T01:22:38;21.55;;;8.20;;
80541;SDS011;69870;51.460;8.842;2023-05-07T01:25:06;14.25;;;8.15;;
80541;SDS011;69870;51.460;8.842;2023-05-07T01:27:35;11.75;;;8.75;;
80541;SDS011;69870;51.460;8.842;2023-05-07T01:30:02;10.82;;;7.97;;
80541;SDS011;69870;51.460;8.842;2023-05-07T01:32:31;18.23;;;8.63;;
80541;SDS011;69870;51.460;8.842;2023-05-07T01:35:02;15.50;;;9.35;;
80541;SDS011;69870;51.460;8.842;2023-05-07T01:37:31;12.75;;;8.68;;
80541;SDS011;69870;51.460;8.842;2023-05-07T01:39:59;13.25;;;9.35;;
80541;SDS011;69870;51.460;8.842;2023-05-07T01:42:28;19.27;;;10.70;;
80541;SDS011;69870;51.460;8.842;2023-05-07T01:44:55;15.50;;;10.00;;
80541;SDS011;69870;51.460;8.842;2023-05-07T01:47:22;18.35;;;11.60;;
80541;SDS011;69870;51.460;8.842;2023-05-07T01:49:49;13.90;;;10.23;;
80541;SDS011;69870;51.460;8.842;2023-05-07T01:52:16;15.32;;;10.75;;
80541;SDS011;69870;51.460;8.842;2023-05-07T01:54:43;23.25;;;10.95;;
80541;SDS011;69870;51.460;8.842;2023-05-07T01:57:11;22.92;;;12.13;;
80541;SDS011;69870;51.460;8.842;2023-05-07T01:59:37;20.35;;;12.82;;
80541;SDS011;69870;51.460;8.842;2023-05-07T02:02:04;19.42;;;13.18;;
80541;SDS011;69870;51.460;8.842;2023-05-07T02:04:32;21.90;;;12.45;;
80541;SDS011;69870;51.460;8.842;2023-05-07T02:06:58;19.50;;;12.88;;
80541;SDS011;69870;51.460;8.842;2023-05-07T02:09:25;22.58;;;12.45;;
80541;SDS011;69870;51.460;8.842;2023-05-07T02:11:52;22.92;;;15.82;;
80541;SDS011;69870;51.460;8.842;2023-05-07T02:14:21;32.63;;;19.25;;
80541;SDS011;69870;51.460;8.842;2023-05-07T02:16:47;34.88;;;22.63;;
80541;SDS011;69870;51.460;8.842;2023-05-07T02:19:15;41.90;;;25.33;;
80541;SDS011;69870;51.460;8.842;2023-05-07T02:21:41;50.00;;;30.90;;
80541;SDS011;69870;51.460;8.842;2023-05-07T02:24:08;47.40;;;29.13;;
80541;SDS011;69870;51.460;8.842;2023-05-07T02:26:35;47.33;;;33.22;;
80541;SDS011;69870;51.460;8.842;2023-05-07T02:29:01;45.78;;;30.85;;
80541;SDS011;69870;51.460;8.842;2023-05-07T02:31:30;44.38;;;30.60;;
80541;SDS011;69870;51.460;8.842;2023-05-07T02:33:59;50.83;;;33.78;;
80541;SDS011;69870;51.460;8.842;2023-05-07T02:36:26;53.72;;;32.92;;
80541;SDS011;69870;51.460;8.842;2023-05-07T02:38:59;55.33;;;33.97;;
80541;SDS011;69870;51.460;8.842;2023-05-07T02:41:27;51.13;;;33.60;;
80541;SDS011;69870;51.460;8.842;2023-05-07T02:43:54;58.40;;;35.03;;
80541;SDS011;69870;51.460;8.842;2023-05-07T02:46:21;61.70;;;36.33;;
80541;SDS011;69870;51.460;8.842;2023-05-07T02:48:57;57.58;;;35.75;;
80541;SDS011;69870;51.460;8.842;2023-05-07T02:51:23;54.30;;;36.00;;
80541;SDS011;69870;51.460;8.842;2023-05-07T02:53:51;55.60;;;35.45;;
80541;SDS011;69870;51.460;8.842;2023-05-07T02:56:17;50.63;;;34.45;;
80541;SDS011;69870;51.460;8.842;2023-05-07T02:58:44;64.90;;;37.10;;
80541;SDS011;69870;51.460;8.842;2023-05-07T03:01:12;57.83;;;37.17;;
80541;SDS011;69870;51.460;8.842;2023-05-07T03:03:59;56.72;;;38.17;;
80541;SDS011;69870;51.460;8.842;2023-05-07T03:06:26;57.92;;;37.08;;
80541;SDS011;69870;51.460;8.842;2023-05-07T03:08:53;59.42;;;37.33;;
80541;SDS011;69870;51.460;8.842;2023-05-07T03:11:19;62.75;;;37.80;;
80541;SDS011;69870;51.460;8.842;2023-05-07T03:13:46;58.60;;;38.25;;
80541;SDS011;69870;51.460;8.842;2023-05-07T03:16:14;63.78;;;41.13;;
80541;SDS011;69870;51.460;8.842;2023-05-07T03:18:41;64.80;;;39.03;;
80541;SDS011;69870;51.460;8.842;2023-05-07T03:21:09;66.18;;;39.97;;
80541;SDS011;69870;51.460;8.842;2023-05-07T03:23:36;68.30;;;39.50;;
80541;SDS011;69870;51.460;8.842;2023-05-07T03:26:03;64.13;;;39.88;;
80541;SDS011;69870;51.460;8.842;2023-05-07T03:28:30;66.47;;;40.75;;
80541;SDS011;69870;51.460;8.842;2023-05-07T03:31:00;70.65;;;42.38;;
80541;SDS011;69870;51.460;8.842;2023-05-07T03:33:28;73.80;;;43.33;;
80541;SDS011;69870;51.460;8.842;2023-05-07T03:35:55;68.10;;;42.55;;
80541;SDS011;69870;51.460;8.842;2023-05-07T03:38:25;69.55;;;42.22;;
80541;SDS011;69870;51.460;8.842;2023-05-07T03:40:52;63.92;;;40.72;;
80541;SDS011;69870;51.460;8.842;2023-05-07T03:43:18;63.85;;;40.00;;
80541;SDS011;69870;51.460;8.842;2023-05-07T03:45:50;67.15;;;40.30;;
80541;SDS011;69870;51.460;8.842;2023-05-07T03:48:21;70.57;;;43.47;;
80541;SDS011;69870;51.460;8.842;2023-05-07T03:50:50;75.75;;;43.75;;
80541;SDS011;69870;51.460;8.842;2023-05-07T03:53:18;78.20;;;45.60;;
80541;SDS011;69870;51.460;8.842;2023-05-07T03:55:46;73.93;;;44.67;;
80541;SDS011;69870;51.460;8.842;2023-05-07T03:58:13;74.10;;;44.85;;
80541;SDS011;69870;51.460;8.842;2023-05-07T04:00:41;76.72;;;45.38;;
80541;SDS011;69870;51.460;8.842;2023-05-07T04:05:48;83.55;;;44.95;;
80541;SDS011;69870;51.460;8.842;2023-05-07T04:08:20;77.90;;;45.28;;
80541;SDS011;69870;51.460;8.842;2023-05-07T04:10:55;77.15;;;45.13;;
80541;SDS011;69870;51.460;8.842;2023-05-07T04:13:42;73.05;;;44.22;;
80541;SDS011;69870;51.460;8.842;2023-05-07T04:16:11;79.07;;;45.33;;
80541;SDS011;69870;51.460;8.842;2023-05-07T04:18:43;72.95;;;44.40;;
80541;SDS011;69870;51.460;8.842;2023-05-07T04:21:17;77.72;;;45.33;;
80541;SDS011;69870;51.460;8.842;2023-05-07T04:23:58;79.05;;;45.90;;
80541;SDS011;69870;51.460;8.842;2023-05-07T04:26:26;76.70;;;45.47;;
80541;SDS011;69870;51.460;8.842;2023-05-07T04:28:53;83.90;;;45.50;;
80541;SDS011;69870;51.460;8.842;2023-05-07T04:31:20;81.57;;;47.00;;
80541;SDS011;69870;51.460;8.842;2023-05-07T04:33:50;75.20;;;45.47;;
80541;SDS011;69870;51.460;8.842;2023-05-07T04:36:17;79.85;;;47.22;;
80541;SDS011;69870;51.460;8.842;2023-05-07T04:38:50;81.05;;;46.90;;
80541;SDS011;69870;51.460;8.842;2023-05-07T04:41:18;80.63;;;46.47;;
80541;SDS011;69870;51.460;8.842;2023-05-07T04:43:46;88.63;;;49.20;;
80541;SDS011;69870;51.460;8.842;2023-05-07T04:46:14;85.13;;;45.08;;
80541;SDS011;69870;51.460;8.842;2023-05-07T04:48:42;81.13;;;46.67;;
80541;SDS011;69870;51.460;8.842;2023-05-07T04:51:08;85.00;;;48.67;;
80541;SDS011;69870;51.460;8.842;2023-05-07T04:53:35;83.70;;;48.53;;
80541;SDS011;69870;51.460;8.842;2023-05-07T04:56:02;84.40;;;46.38;;
80541;SDS011;69870;51.460;8.842;2023-05-07T04:58:34;84.90;;;47.88;;
80541;SDS011;69870;51.460;8.842;2023-05-07T05:01:02;81.10;;;48.00;;
80541;SDS011;69870;51.460;8.842;2023-05-07T05:03:29;89.20;;;48.22;;
80541;SDS011;69870;51.460;8.842;2023-05-07T05:05:56;82.35;;;47.83;;
80541;SDS011;69870;51.460;8.842;2023-05-07T05:08:26;86.55;;;47.58;;
80541;SDS011;69870;51.460;8.842;2023-05-07T05:10:53;81.13;;;46.70;;
80541;SDS011;69870;51.460;8.842;2023-05-07T05:13:24;78.10;;;44.20;;
80541;SDS011;69870;51.460;8.842;2023-05-07T05:15:51;79.20;;;38.78;;
80541;SDS011;69870;51.460;8.842;2023-05-07T05:18:19;83.93;;;46.85;;
80541;SDS011;69870;51.460;8.842;2023-05-07T05:20:48;83.18;;;44.38;;
80541;SDS011;69870;51.460;8.842;2023-05-07T05:23:17;81.00;;;44.75;;
80541;SDS011;69870;51.460;8.842;2023-05-07T05:25:43;85.97;;;45.45;;
80541;SDS011;69870;51.460;8.842;2023-05-07T05:28:12;79.75;;;45.05;;
80541;SDS011;69870;51.460;8.842;2023-05-07T05:30:38;85.45;;;47.53;;
80541;SDS011;69870;51.460;8.842;2023-05-07T05:33:06;77.05;;;45.90;;
80541;SDS011;69870;51.460;8.842;2023-05-07T05:35:34;79.00;;;47.25;;
80541;SDS011;69870;51.460;8.842;2023-05-07T05:38:04;75.28;;;44.15;;
80541;SDS011;69870;51.460;8.842;2023-05-07T05:40:32;76.47;;;44.90;;
80541;SDS011;69870;51.460;8.842;2023-05-07T05:42:59;83.03;;;46.80;;
80541;SDS011;69870;51.460;8.842;2023-05-07T05:45:25;78.72;;;45.85;;
80541;SDS011;69870;51.460;8.842;2023-05-07T05:47:52;88.13;;;47.40;;
80541;SDS011;69870;51.460;8.842;2023-05-07T05:50:19;76.13;;;44.97;;
80541;SDS011;69870;51.460;8.842;2023-05-07T05:52:47;82.57;;;43.92;;
80541;SDS011;69870;51.460;8.842;2023-05-07T05:55:15;77.68;;;45.38;;
80541;SDS011;69870;51.460;8.842;2023-05-07T05:57:42;74.90;;;43.38;;
80541;SDS011;69870;51.460;8.842;2023-05-07T06:00:09;77.57;;;43.35;;
80541;SDS011;69870;51.460;8.842;2023-05-07T06:02:43;72.72;;;41.85;;
80541;SDS011;69870;51.460;8.842;2023-05-07T06:05:13;77.32;;;42.65;;
80541;SDS011;69870;51.460;8.842;2023-05-07T06:07:40;79.90;;;42.65;;
80541;SDS011;69870;51.460;8.842;2023-05-07T06:10:09;68.03;;;39.45;;
80541;SDS011;69870;51.460;8.842;2023-05-07T06:12:37;72.50;;;40.95;;
80541;SDS011;69870;51.460;8.842;2023-05-07T06:15:04;69.40;;;41.08;;
80541;SDS011;69870;51.460;8.842;2023-05-07T06:17:31;59.58;;;35.78;;
80541;SDS011;69870;51.460;8.842;2023-05-07T06:19:58;69.20;;;39.30;;
80541;SDS011;69870;51.460;8.842;2023-05-07T06:22:24;67.55;;;38.65;;
80541;SDS011;69870;51.460;8.842;2023-05-07T06:24:51;71.75;;;40.40;;
80541;SDS011;69870;51.460;8.842;2023-05-07T06:27:19;66.57;;;40.45;;
80541;SDS011;69870;51.460;8.842;2023-05-07T06:29:47;61.75;;;39.65;;
80541;SDS011;69870;51.460;8.842;2023-05-07T06:32:16;64.93;;;38.15;;
80541;SDS011;69870;51.460;8.842;2023-05-07T06:34:44;65.22;;;40.55;;
80541;SDS011;69870;51.460;8.842;2023-05-07T06:37:11;65.25;;;38.92;;
80541;SDS011;69870;51.460;8.842;2023-05-07T06:39:51;66.35;;;40.20;;
80541;SDS011;69870;51.460;8.842;2023-05-07T06:42:17;61.72;;;36.47;;
80541;SDS011;69870;51.460;8.842;2023-05-07T06:44:48;63.72;;;37.63;;
80541;SDS011;69870;51.460;8.842;2023-05-07T06:47:16;61.22;;;37.90;;
80541;SDS011;69870;51.460;8.842;2023-05-07T06:49:46;68.40;;;38.20;;
80541;SDS011;69870;51.460;8.842;2023-05-07T06:52:16;69.13;;;38.85;;
80541;SDS011;69870;51.460;8.842;2023-05-07T06:54:43;67.07;;;39.33;;
80541;SDS011;69870;51.460;8.842;2023-05-07T06:57:11;60.22;;;36.78;;
80541;SDS011;69870;51.460;8.842;2023-05-07T06:59:37;59.90;;;35.88;;
80541;SDS011;69870;51.460;8.842;2023-05-07T07:02:05;62.28;;;37.38;;
80541;SDS011;69870;51.460;8.842;2023-05-07T07:04:32;64.80;;;39.05;;
80541;SDS011;69870;51.460;8.842;2023-05-07T07:07:04;59.38;;;36.83;;
80541;SDS011;69870;51.460;8.842;2023-05-07T07:09:30;62.35;;;36.70;;
80541;SDS011;69870;51.460;8.842;2023-05-07T07:11:59;61.85;;;37.15;;
80541;SDS011;69870;51.460;8.842;2023-05-07T07:14:26;56.45;;;33.80;;
80541;SDS011;69870;51.460;8.842;2023-05-07T07:16:53;64.35;;;36.67;;
80541;SDS011;69870;51.460;8.842;2023-05-07T07:19:23;58.42;;;35.80;;
80541;SDS011;69870;51.460;8.842;2023-05-07T07:21:52;59.35;;;35.92;;
80541;SDS011;69870;51.460;8.842;2023-05-07T07:24:19;66.30;;;37.05;;
80541;SDS011;69870;51.460;8.842;2023-05-07T07:26:48;63.72;;;35.70;;
80541;SDS011;69870;51.460;8.842;2023-05-07T07:29:16;63.72;;;35.60;;
80541;SDS011;69870;51.460;8.842;2023-05-07T07:31:44;60.33;;;34.53;;
80541;SDS011;69870;51.460;8.842;2023-05-07T07:34:11;55.63;;;35.03;;
80541;SDS011;69870;51.460;8.842;2023-05-07T07:36:39;57.08;;;34.33;;
80541;SDS011;69870;51.460;8.842;2023-05-07T07:39:08;59.90;;;35.35;;
80541;SDS011;69870;51.460;8.842;2023-05-07T07:41:35;57.28;;;32.85;;
80541;SDS011;69870;51.460;8.842;2023-05-07T07:44:02;60.15;;;34.83;;
80541;SDS011;69870;51.460;8.842;2023-05-07T07:46:34;55.05;;;32.22;;
80541;SDS011;69870;51.460;8.842;2023-05-07T07:49:01;54.30;;;32.67;;
80541;SDS011;69870;51.460;8.842;2023-05-07T07:51:28;52.22;;;31.67;;
80541;SDS011;69870;51.460;8.842;2023-05-07T07:53:57;60.47;;;32.65;;
80541;SDS011;69870;51.460;8.842;2023-05-07T07:56:24;54.92;;;33.17;;
80541;SDS011;69870;51.460;8.842;2023-05-07T07:58:51;55.13;;;31.25;;
80541;SDS011;69870;51.460;8.842;2023-05-07T08:01:18;53.25;;;32.53;;
80541;SDS011;69870;51.460;8.842;2023-05-07T08:03:46;48.60;;;30.70;;
80541;SDS011;69870;51.460;8.842;2023-05-07T08:06:13;48.50;;;30.67;;
80541;SDS011;69870;51.460;8.842;2023-05-07T08:08:40;47.88;;;28.05;;
80541;SDS011;69870;51.460;8.842;2023-05-07T08:11:08;45.88;;;29.20;;
80541;SDS011;69870;51.460;8.842;2023-05-07T08:13:35;51.33;;;31.52;;
80541;SDS011;69870;51.460;8.842;2023-05-07T08:16:03;48.85;;;30.25;;
80541;SDS011;69870;51.460;8.842;2023-05-07T08:18:30;47.28;;;29.75;;
80541;SDS011;69870;51.460;8.842;2023-05-07T08:21:00;46.47;;;28.95;;
80541;SDS011;69870;51.460;8.842;2023-05-07T08:23:27;50.47;;;30.90;;
80541;SDS011;69870;51.460;8.842;2023-05-07T08:25:54;48.50;;;28.55;;
80541;SDS011;69870;51.460;8.842;2023-05-07T08:28:23;50.10;;;29.83;;
80541;SDS011;69870;51.460;8.842;2023-05-07T08:30:50;44.75;;;28.85;;
80541;SDS011;69870;51.460;8.842;2023-05-07T08:33:17;43.88;;;29.15;;
80541;SDS011;69870;51.460;8.842;2023-05-07T08:35:43;51.97;;;30.42;;
80541;SDS011;69870;51.460;8.842;2023-05-07T08:38:12;47.13;;;28.52;;
80541;SDS011;69870;51.460;8.842;2023-05-07T08:40:39;43.92;;;27.20;;
80541;SDS011;69870;51.460;8.842;2023-05-07T08:43:11;48.50;;;28.65;;
80541;SDS011;69870;51.460;8.842;2023-05-07T08:45:40;44.97;;;26.48;;
80541;SDS011;69870;51.460;8.842;2023-05-07T08:48:16;47.13;;;26.98;;
80541;SDS011;69870;51.460;8.842;2023-05-07T08:50:50;41.20;;;26.20;;
80541;SDS011;69870;51.460;8.842;2023-05-07T08:53:17;44.40;;;26.30;;
80541;SDS011;69870;51.460;8.842;2023-05-07T08:55:44;41.10;;;25.98;;
80541;SDS011;69870;51.460;8.842;2023-05-07T08:58:12;40.42;;;25.63;;
80541;SDS011;69870;51.460;8.842;2023-05-07T09:00:40;55.33;;;26.48;;
80541;SDS011;69870;51.460;8.842;2023-05-07T09:03:09;35.88;;;25.33;;
80541;SDS011;69870;51.460;8.842;2023-05-07T09:05:38;41.83;;;25.80;;
80541;SDS011;69870;51.460;8.842;2023-05-07T09:08:07;41.03;;;25.23;;
80541;SDS011;69870;51.460;8.842;2023-05-07T09:10:35;39.20;;;24.83;;
80541;SDS011;69870;51.460;8.842;2023-05-07T09:13:02;39.53;;;23.65;;
80541;SDS011;69870;51.460;8.842;2023-05-07T09:15:29;37.92;;;23.17;;
80541;SDS011;69870;51.460;8.842;2023-05-07T09:18:00;37.60;;;24.10;;
80541;SDS011;69870;51.460;8.842;2023-05-07T09:20:29;33.70;;;23.20;;
80541;SDS011;69870;51.460;8.842;2023-05-07T09:22:58;34.35;;;22.17;;
80541;SDS011;69870;51.460;8.842;2023-05-07T09:25:28;33.08;;;22.33;;
80541;SDS011;69870;51.460;8.842;2023-05-07T09:27:56;35.35;;;22.35;;
80541;SDS011;69870;51.460;8.842;2023-05-07T09:30:23;31.60;;;21.13;;
80541;SDS011;69870;51.460;8.842;2023-05-07T09:32:54;33.88;;;21.50;;
80541;SDS011;69870;51.460;8.842;2023-05-07T09:35:23;27.45;;;19.40;;
80541;SDS011;69870;51.460;8.842;2023-05-07T09:37:56;34.72;;;20.70;;
80541;SDS011;69870;51.460;8.842;2023-05-07T09:40:24;29.70;;;20.35;;
80541;SDS011;69870;51.460;8.842;2023-05-07T09:42:53;29.45;;;18.33;;
80541;SDS011;69870;51.460;8.842;2023-05-07T09:45:21;28.48;;;18.90;;
80541;SDS011;69870;51.460;8.842;2023-05-07T09:47:49;31.15;;;18.40;;
80541;SDS011;69870;51.460;8.842;2023-05-07T09:50:23;28.58;;;19.63;;
80541;SDS011;69870;51.460;8.842;2023-05-07T09:52:53;29.30;;;19.60;;
80541;SDS011;69870;51.460;8.842;2023-05-07T09:55:21;26.90;;;18.08;;
80541;SDS011;69870;51.460;8.842;2023-05-07T09:57:48;28.08;;;18.13;;
80541;SDS011;69870;51.460;8.842;2023-05-07T10:00:17;23.70;;;17.77;;
80541;SDS011;69870;51.460;8.842;2023-05-07T10:02:46;24.70;;;17.02;;
80541;SDS011;69870;51.460;8.842;2023-05-07T10:05:17;27.50;;;16.80;;
80541;SDS011;69870;51.460;8.842;2023-05-07T10:07:46;25.83;;;17.33;;
80541;SDS011;69870;51.460;8.842;2023-05-07T10:10:14;27.02;;;15.85;;
80541;SDS011;69870;51.460;8.842;2023-05-07T10:12:43;21.02;;;15.20;;
80541;SDS011;69870;51.460;8.842;2023-05-07T10:15:21;23.20;;;16.13;;
80541;SDS011;69870;51.460;8.842;2023-05-07T10:17:52;23.98;;;17.65;;
80541;SDS011;69870;51.460;8.842;2023-05-07T10:20:19;22.77;;;15.07;;
80541;SDS011;69870;51.460;8.842;2023-05-07T10:22:48;22.73;;;15.43;;
80541;SDS011;69870;51.460;8.842;2023-05-07T10:25:23;20.73;;;14.55;;
80541;SDS011;69870;51.460;8.842;2023-05-07T10:28:04;25.77;;;17.02;;
80541;SDS011;69870;51.460;8.842;2023-05-07T10:30:38;18.95;;;13.60;;
80541;SDS011;69870;51.460;8.842;2023-05-07T10:33:15;22.52;;;14.13;;
80541;SDS011;69870;51.460;8.842;2023-05-07T10:35:46;20.80;;;13.57;;
80541;SDS011;69870;51.460;8.842;2023-05-07T10:38:16;21.50;;;14.43;;
80541;SDS011;69870;51.460;8.842;2023-05-07T10:40:45;21.25;;;15.13;;
80541;SDS011;69870;51.460;8.842;2023-05-07T10:43:12;23.40;;;14.25;;
80541;SDS011;69870;51.460;8.842;2023-05-07T10:54:44;18.50;;;12.35;;
80541;SDS011;69870;51.460;8.842;2023-05-07T11:03:17;19.17;;;12.50;;
80541;SDS011;69870;51.460;8.842;2023-05-07T11:06:08;15.85;;;11.60;;
80541;SDS011;69870;51.460;8.842;2023-05-07T11:08:53;17.15;;;11.27;;
80541;SDS011;69870;51.460;8.842;2023-05-07T11:14:56;17.83;;;11.00;;
80541;SDS011;69870;51.460;8.842;2023-05-07T11:17:32;14.43;;;9.70;;
80541;SDS011;69870;51.460;8.842;2023-05-07T11:20:03;14.65;;;11.00;;
80541;SDS011;69870;51.460;8.842;2023-05-07T11:22:37;14.40;;;10.18;;
80541;SDS011;69870;51.460;8.842;2023-05-07T11:25:41;17.67;;;12.57;;
80541;SDS011;69870;51.460;8.842;2023-05-07T11:28:16;16.10;;;10.80;;
80541;SDS011;69870;51.460;8.842;2023-05-07T11:30:56;14.55;;;10.77;;
80541;SDS011;69870;51.460;8.842;2023-05-07T11:33:24;14.70;;;10.07;;
80541;SDS011;69870;51.460;8.842;2023-05-07T11:35:53;15.88;;;9.82;;
80541;SDS011;69870;51.460;8.842;2023-05-07T11:38:22;15.15;;;9.35;;
80541;SDS011;69870;51.460;8.842;2023-05-07T11:40:49;12.73;;;9.75;;
80541;SDS011;69870;51.460;8.842;2023-05-07T11:43:18;12.35;;;9.25;;
80541;SDS011;69870;51.460;8.842;2023-05-07T11:45:45;15.00;;;9.57;;
80541;SDS011;69870;51.460;8.842;2023-05-07T11:48:12;16.73;;;8.93;;
80541;SDS011;69870;51.460;8.842;2023-05-07T11:50:49;12.38;;;7.70;;
80541;SDS011;69870;51.460;8.842;2023-05-07T11:53:17;13.02;;;9.32;;
80541;SDS011;69870;51.460;8.842;2023-05-07T11:55:43;11.95;;;9.07;;
80541;SDS011;69870;51.460;8.842;2023-05-07T11:58:11;12.15;;;8.18;;
80541;SDS011;69870;51.460;8.842;2023-05-07T12:00:40;11.43;;;8.50;;
80541;SDS011;69870;51.460;8.842;2023-05-07T12:03:14;14.43;;;8.85;;
80541;SDS011;69870;51.460;8.842;2023-05-07T12:05:41;10.38;;;8.38;;
80541;SDS011;69870;51.460;8.842;2023-05-07T12:08:07;9.95;;;7.43;;
80541;SDS011;69870;51.460;8.842;2023-05-07T12:10:34;15.45;;;7.38;;
80541;SDS011;69870;51.460;8.842;2023-05-07T12:13:01;8.93;;;7.18;;
80541;SDS011;69870;51.460;8.842;2023-05-07T12:15:27;12.98;;;7.93;;
80541;SDS011;69870;51.460;8.842;2023-05-07T12:17:55;8.27;;;6.70;;
80541;SDS011;69870;51.460;8.842;2023-05-07T12:20:22;8.88;;;6.55;;
80541;SDS011;69870;51.460;8.842;2023-05-07T12:22:49;11.07;;;6.63;;
80541;SDS011;69870;51.460;8.842;2023-05-07T12:25:18;8.52;;;6.28;;
80541;SDS011;69870;51.460;8.842;2023-05-07T12:27:45;9.00;;;5.95;;
80541;SDS011;69870;51.460;8.842;2023-05-07T12:30:18;11.60;;;6.10;;
80541;SDS011;69870;51.460;8.842;2023-05-07T12:32:45;6.18;;;5.05;;
80541;SDS011;69870;51.460;8.842;2023-05-07T12:35:13;13.55;;;6.55;;
80541;SDS011;69870;51.460;8.842;2023-05-07T12:37:40;7.65;;;5.85;;
80541;SDS011;69870;51.460;8.842;2023-05-07T12:40:08;7.22;;;5.78;;
80541;SDS011;69870;51.460;8.842;2023-05-07T12:42:36;8.80;;;6.38;;
80541;SDS011;69870;51.460;8.842;2023-05-07T12:45:07;12.70;;;6.45;;
80541;SDS011;69870;51.460;8.842;2023-05-07T12:47:35;7.43;;;6.07;;
80541;SDS011;69870;51.460;8.842;2023-05-07T12:50:01;8.10;;;5.32;;
80541;SDS011;69870;51.460;8.842;2023-05-07T12:52:30;10.40;;;5.47;;
80541;SDS011;69870;51.460;8.842;2023-05-07T12:54:57;8.38;;;5.13;;
80541;SDS011;69870;51.460;8.842;2023-05-07T12:57:30;6.80;;;6.07;;
80541;SDS011;69870;51.460;8.842;2023-05-07T13:00:04;10.02;;;6.15;;
80541;SDS011;69870;51.460;8.842;2023-05-07T13:02:32;7.03;;;6.10;;
80541;SDS011;69870;51.460;8.842;2023-05-07T13:04:59;6.57;;;5.53;;
80541;SDS011;69870;51.460;8.842;2023-05-07T13:07:26;8.77;;;6.43;;
80541;SDS011;69870;51.460;8.842;2023-05-07T13:09:54;9.80;;;6.10;;
80541;SDS011;69870;51.460;8.842;2023-05-07T13:12:20;12.98;;;5.72;;
80541;SDS011;69870;51.460;8.842;2023-05-07T13:14:47;8.13;;;6.07;;
80541;SDS011;69870;51.460;8.842;2023-05-07T13:17:14;8.73;;;6.72;;
80541;SDS011;69870;51.460;8.842;2023-05-07T13:19:40;8.57;;;6.88;;
80541;SDS011;69870;51.460;8.842;2023-05-07T13:22:07;15.68;;;6.63;;
80541;SDS011;69870;51.460;8.842;2023-05-07T13:24:33;13.10;;;7.18;;
80541;SDS011;69870;51.460;8.842;2023-05-07T13:27:02;11.07;;;7.65;;
80541;SDS011;69870;51.460;8.842;2023-05-07T13:29:29;11.45;;;7.60;;
80541;SDS011;69870;51.460;8.842;2023-05-07T13:31:56;10.32;;;8.27;;
80541;SDS011;69870;51.460;8.842;2023-05-07T13:34:22;10.90;;;7.10;;
80541;SDS011;69870;51.460;8.842;2023-05-07T13:36:49;11.45;;;7.78;;
80541;SDS011;69870;51.460;8.842;2023-05-07T13:39:15;9.98;;;7.38;;
80541;SDS011;69870;51.460;8.842;2023-05-07T13:41:42;9.43;;;7.60;;
80541;SDS011;69870;51.460;8.842;2023-05-07T13:44:10;10.50;;;7.75;;
80541;SDS011;69870;51.460;8.842;2023-05-07T13:46:36;9.70;;;8.10;;
80541;SDS011;69870;51.460;8.842;2023-05-07T13:49:03;10.93;;;9.25;;
80541;SDS011;69870;51.460;8.842;2023-05-07T13:51:29;12.18;;;9.18;;
80541;SDS011;69870;51.460;8.842;2023-05-07T13:53:56;14.30;;;9.30;;
80541;SDS011;69870;51.460;8.842;2023-05-07T13:56:23;16.55;;;9.43;;
80541;SDS011;69870;51.460;8.842;2023-05-07T13:58:50;12.65;;;9.32;;
80541;SDS011;69870;51.460;8.842;2023-05-07T14:01:18;13.82;;;10.55;;
80541;SDS011;69870;51.460;8.842;2023-05-07T14:03:44;14.80;;;10.60;;
80541;SDS011;69870;51.460;8.842;2023-05-07T14:06:11;14.00;;;11.10;;
80541;SDS011;69870;51.460;8.842;2023-05-07T14:08:37;14.30;;;9.30;;
80541;SDS011;69870;51.460;8.842;2023-05-07T14:11:04;13.32;;;10.07;;
80541;SDS011;69870;51.460;8.842;2023-05-07T14:13:31;14.02;;;9.98;;
80541;SDS011;69870;51.460;8.842;2023-05-07T14:15:59;16.75;;;10.27;;
80541;SDS011;69870;51.460;8.842;2023-05-07T14:18:27;14.32;;;10.77;;
80541;SDS011;69870;51.460;8.842;2023-05-07T14:20:54;13.88;;;10.95;;
80541;SDS011;69870;51.460;8.842;2023-05-07T14:23:20;13.23;;;10.70;;
80541;SDS011;69870;51.460;8.842;2023-05-07T14:25:51;14.23;;;10.43;;
80541;SDS011;69870;51.460;8.842;2023-05-07T14:28:18;13.88;;;9.75;;
80541;SDS011;69870;51.460;8.842;2023-05-07T14:30:45;17.83;;;10.63;;
80541;SDS011;69870;51.460;8.842;2023-05-07T14:33:11;15.02;;;10.63;;
80541;SDS011;69870;51.460;8.842;2023-05-07T14:35:39;14.60;;;10.95;;
80541;SDS011;69870;51.460;8.842;2023-05-07T14:38:06;13.65;;;10.73;;
80541;SDS011;69870;51.460;8.842;2023-05-07T14:40:32;16.20;;;10.63;;
80541;SDS011;69870;51.460;8.842;2023-05-07T14:42:59;18.48;;;12.35;;
80541;SDS011;69870;51.460;8.842;2023-05-07T14:45:26;14.57;;;11.77;;
80541;SDS011;69870;51.460;8.842;2023-05-07T14:47:52;16.73;;;11.50;;
80541;SDS011;69870;51.460;8.842;2023-05-07T14:50:19;14.55;;;11.07;;
80541;SDS011;69870;51.460;8.842;2023-05-07T14:52:47;13.52;;;10.40;;
80541;SDS011;69870;51.460;8.842;2023-05-07T14:55:14;16.65;;;10.82;;